createdAt,value
2017-07-29T00:00:28.055Z,0
2017-07-29T00:01:27.831Z,0
2017-07-29T00:02:27.813Z,0
2017-07-29T00:03:28.142Z,0
2017-07-29T00:04:28.144Z,0
2017-07-29T00:05:42.771Z,0
2017-07-29T00:06:42.817Z,0
2017-07-29T00:07:28.250Z,0
2017-07-29T00:08:28.257Z,0
2017-07-29T00:09:28.279Z,0
2017-07-29T00:10:28.306Z,0
2017-07-29T00:11:28.294Z,0
2017-07-29T00:12:28.352Z,0
2017-07-29T00:13:27.748Z,0
2017-07-29T00:14:28.099Z,0
2017-07-29T00:15:28.422Z,0
2017-07-29T00:16:28.463Z,0
2017-07-29T00:17:28.457Z,0
2017-07-29T00:18:28.472Z,0
2017-07-29T00:19:28.531Z,0
2017-07-29T00:20:28.535Z,0
2017-07-29T00:21:28.575Z,0
2017-07-29T00:22:43.187Z,0
2017-07-29T00:23:28.617Z,0
2017-07-29T00:24:28.626Z,0
2017-07-29T00:25:28.657Z,0
2017-07-29T00:26:42.976Z,0
2017-07-29T00:27:28.714Z,0
2017-07-29T00:28:43.316Z,0
2017-07-29T00:29:28.449Z,0
2017-07-29T00:30:28.793Z,0
2017-07-29T00:31:28.806Z,0
2017-07-29T00:32:28.810Z,0
2017-07-29T00:33:28.551Z,0
2017-07-29T00:34:28.856Z,0
2017-07-29T00:35:28.898Z,0
2017-07-29T00:36:28.916Z,0
2017-07-29T00:37:43.553Z,0
2017-07-29T00:38:28.994Z,0
2017-07-29T00:39:43.601Z,0
2017-07-29T00:40:29.021Z,0
2017-07-29T00:41:43.338Z,0
2017-07-29T00:42:29.051Z,0
2017-07-29T00:43:28.769Z,0
2017-07-29T00:44:29.134Z,0
2017-07-29T00:45:29.144Z,0
2017-07-29T00:46:29.154Z,0
2017-07-29T00:47:29.186Z,0
2017-07-29T00:48:29.200Z,0
2017-07-29T00:50:29.264Z,0
2017-07-29T00:51:29.286Z,0
2017-07-29T00:52:29.310Z,0
2017-07-29T00:53:43.934Z,0
2017-07-29T00:54:43.963Z,0
2017-07-29T00:55:29.386Z,0
2017-07-29T00:56:29.393Z,0
2017-07-29T00:57:29.441Z,0
2017-07-29T00:59:29.474Z,0
2017-07-29T01:00:29.478Z,0
2017-07-29T01:01:29.529Z,0
2017-07-29T01:02:29.541Z,0
2017-07-29T01:03:44.173Z,0
2017-07-29T01:05:29.610Z,0
2017-07-29T01:08:29.701Z,0
2017-07-29T01:09:44.312Z,0
2017-07-29T01:10:29.436Z,0
2017-07-29T01:11:29.768Z,0
2017-07-29T01:12:44.390Z,0
2017-07-29T01:13:44.404Z,0
2017-07-29T01:14:29.845Z,0
2017-07-29T01:15:29.903Z,0
2017-07-29T01:16:29.897Z,0
2017-07-29T01:17:29.911Z,0
2017-07-29T01:18:29.928Z,0
2017-07-29T01:19:29.953Z,0
2017-07-29T01:20:44.566Z,0
2017-07-29T01:21:30.023Z,0
2017-07-29T01:22:29.401Z,0
2017-07-29T01:23:30.066Z,0
2017-07-29T01:24:30.064Z,0
2017-07-29T01:25:44.402Z,0
2017-07-29T01:26:30.118Z,0
2017-07-29T01:27:30.151Z,0
2017-07-29T01:28:29.840Z,0
2017-07-29T01:29:30.175Z,0
2017-07-29T01:31:44.833Z,0
2017-07-29T01:32:30.273Z,0
2017-07-29T01:33:30.283Z,0
2017-07-29T01:34:30.309Z,0
2017-07-29T01:36:30.670Z,0
2017-07-29T01:37:30.391Z,0
2017-07-29T01:38:30.114Z,0
2017-07-29T01:39:30.410Z,0
2017-07-29T01:40:30.466Z,0
2017-07-29T01:41:45.051Z,0
2017-07-29T01:42:45.110Z,0
2017-07-29T01:43:30.238Z,0
2017-07-29T01:45:30.594Z,0
2017-07-29T01:46:30.611Z,0
2017-07-29T01:47:30.635Z,0
2017-07-29T01:48:30.660Z,0
2017-07-29T01:49:30.674Z,0
2017-07-29T01:50:30.389Z,0
2017-07-29T01:51:30.711Z,0
2017-07-29T01:52:30.758Z,0
2017-07-29T01:53:30.762Z,0
2017-07-29T01:54:30.792Z,0
2017-07-29T01:55:30.804Z,0
2017-07-29T01:56:30.843Z,0
2017-07-29T01:57:45.465Z,0
2017-07-29T01:58:30.899Z,0
2017-07-29T01:59:30.939Z,0
2017-07-29T02:00:30.933Z,0
2017-07-29T02:01:30.983Z,0
2017-07-29T02:02:45.570Z,0
2017-07-29T02:03:31.003Z,0
2017-07-29T02:04:45.645Z,0
2017-07-29T02:05:45.672Z,0
2017-07-29T02:06:45.697Z,0
2017-07-29T02:07:30.789Z,0
2017-07-29T02:08:31.134Z,0
2017-07-29T02:09:30.525Z,0
2017-07-29T02:10:31.164Z,0
2017-07-29T02:11:31.183Z,0
2017-07-29T02:12:45.826Z,0
2017-07-29T02:13:31.248Z,0
2017-07-29T02:14:31.594Z,0
2017-07-29T02:15:31.293Z,0
2017-07-29T02:16:31.340Z,0
2017-07-29T02:17:30.727Z,0
2017-07-29T02:18:45.663Z,0
2017-07-29T02:20:31.397Z,0
2017-07-29T02:21:31.448Z,0
2017-07-29T02:22:31.503Z,0
2017-07-29T02:23:31.502Z,0
2017-07-29T02:24:31.491Z,0
2017-07-29T02:25:31.527Z,0
2017-07-29T02:26:31.536Z,0
2017-07-29T02:27:31.583Z,0
2017-07-29T02:28:31.275Z,0
2017-07-29T02:29:31.338Z,0
2017-07-29T02:30:31.672Z,0
2017-07-29T02:31:31.692Z,0
2017-07-29T02:32:31.697Z,0
2017-07-29T02:33:31.422Z,0
2017-07-29T02:34:31.759Z,0
2017-07-29T02:35:31.778Z,0
2017-07-29T02:36:46.415Z,0
2017-07-29T02:37:46.419Z,0
2017-07-29T02:38:46.448Z,0
2017-07-29T02:39:31.867Z,0
2017-07-29T02:40:31.911Z,0
2017-07-29T02:42:31.955Z,0
2017-07-29T02:43:31.943Z,0
2017-07-29T02:44:46.596Z,0
2017-07-29T02:45:32.015Z,0
2017-07-29T02:46:32.094Z,0
2017-07-29T02:47:31.759Z,0
2017-07-29T02:48:32.088Z,0
2017-07-29T02:50:32.112Z,0
2017-07-29T02:51:32.180Z,0
2017-07-29T02:52:31.867Z,0
2017-07-29T02:53:32.219Z,0
2017-07-29T02:54:46.822Z,0
2017-07-29T02:56:32.292Z,0
2017-07-29T02:57:32.297Z,0
2017-07-29T02:58:32.331Z,0
2017-07-29T02:59:32.356Z,0
2017-07-29T03:00:46.971Z,0
2017-07-29T03:01:32.393Z,0
2017-07-29T03:02:47.046Z,0
2017-07-29T03:03:32.446Z,0
2017-07-29T03:04:32.463Z,0
2017-07-29T03:06:32.514Z,0
2017-07-29T03:07:32.276Z,0
2017-07-29T03:08:32.263Z,0
2017-07-29T03:09:32.282Z,0
2017-07-29T03:10:47.216Z,0
2017-07-29T03:11:47.238Z,0
2017-07-29T03:12:32.677Z,0
2017-07-29T03:13:47.270Z,0
2017-07-29T03:14:32.714Z,0
2017-07-29T03:15:32.741Z,0
2017-07-29T03:16:47.041Z,0
2017-07-29T03:18:32.795Z,0
2017-07-29T03:19:32.835Z,0
2017-07-29T03:20:32.825Z,0
2017-07-29T03:21:32.882Z,0
2017-07-29T03:22:32.891Z,0
2017-07-29T03:23:32.932Z,0
2017-07-29T03:24:32.958Z,0
2017-07-29T03:25:32.960Z,0
2017-07-29T03:26:32.990Z,0
2017-07-29T03:27:33.421Z,0
2017-07-29T03:28:33.054Z,0
2017-07-29T03:29:33.057Z,0
2017-07-29T03:30:33.125Z,0
2017-07-29T03:31:33.101Z,5
2017-07-29T03:32:47.437Z,5
2017-07-29T03:34:33.196Z,5
2017-07-29T03:35:33.214Z,5
2017-07-29T03:36:33.229Z,5
2017-07-29T03:37:33.235Z,5
2017-07-29T03:38:33.280Z,5
2017-07-29T03:40:33.364Z,5
2017-07-29T03:41:33.351Z,5
2017-07-29T03:42:47.988Z,5
2017-07-29T03:43:33.084Z,5
2017-07-29T03:44:33.429Z,5
2017-07-29T03:45:33.449Z,5
2017-07-29T03:46:48.066Z,5
2017-07-29T03:47:48.099Z,10
2017-07-29T03:48:33.512Z,10
2017-07-29T03:49:48.145Z,10
2017-07-29T03:50:33.581Z,10
2017-07-29T03:51:48.167Z,10
2017-07-29T03:52:33.326Z,10
2017-07-29T03:53:33.648Z,10
2017-07-29T03:54:47.959Z,10
2017-07-29T03:55:33.676Z,10
2017-07-29T03:57:33.728Z,10
2017-07-29T04:00:33.811Z,10
2017-07-29T04:01:33.845Z,15
2017-07-29T04:02:33.849Z,15
2017-07-29T04:03:33.565Z,20
2017-07-29T04:04:33.922Z,25
2017-07-29T04:05:48.526Z,30
2017-07-29T04:06:33.957Z,30
2017-07-29T04:07:33.978Z,35
2017-07-29T04:08:33.985Z,40
2017-07-29T04:09:48.639Z,40
2017-07-29T04:10:34.048Z,40
2017-07-29T04:11:34.086Z,40
2017-07-29T04:12:48.692Z,45
2017-07-29T04:13:48.712Z,45
2017-07-29T04:14:33.834Z,50
2017-07-29T04:15:34.146Z,50
2017-07-29T04:16:33.884Z,45
2017-07-29T04:17:34.202Z,45
2017-07-29T04:18:33.944Z,40
2017-07-29T04:19:48.873Z,40
2017-07-29T04:20:34.296Z,40
2017-07-29T04:21:33.984Z,35
2017-07-29T04:22:34.348Z,35
2017-07-29T04:23:34.350Z,30
2017-07-29T04:24:48.980Z,30
2017-07-29T04:25:34.426Z,30
2017-07-29T04:26:49.013Z,30
2017-07-29T04:27:34.465Z,30
2017-07-29T04:28:34.479Z,30
2017-07-29T04:29:49.114Z,30
2017-07-29T04:30:34.523Z,30
2017-07-29T04:31:34.553Z,30
2017-07-29T04:32:49.154Z,30
2017-07-29T04:33:34.593Z,30
2017-07-29T04:34:49.221Z,30
2017-07-29T04:36:03.851Z,30
2017-07-29T04:36:34.684Z,30
2017-07-29T04:37:34.676Z,30
2017-07-29T04:38:34.716Z,30
2017-07-29T04:39:34.738Z,30
2017-07-29T04:40:34.774Z,30
2017-07-29T04:41:34.529Z,35
2017-07-29T04:42:34.522Z,35
2017-07-29T04:43:34.830Z,40
2017-07-29T04:44:34.889Z,45
2017-07-29T04:45:34.871Z,50
2017-07-29T04:46:34.923Z,55
2017-07-29T04:47:34.929Z,60
2017-07-29T04:48:34.980Z,65
2017-07-29T04:49:34.989Z,65
2017-07-29T04:50:34.994Z,60
2017-07-29T04:52:03.925Z,55
2017-07-29T04:52:49.327Z,55
2017-07-29T04:53:34.779Z,50
2017-07-29T04:54:35.099Z,50
2017-07-29T04:55:35.129Z,40
2017-07-29T04:56:35.160Z,40
2017-07-29T04:57:34.868Z,40
2017-07-29T04:58:35.202Z,40
2017-07-29T04:59:34.941Z,50
2017-07-29T05:00:35.255Z,50
2017-07-29T05:01:35.278Z,50
2017-07-29T05:02:35.305Z,50
2017-07-29T05:03:35.333Z,50
2017-07-29T05:04:35.336Z,50
2017-07-29T05:05:35.371Z,50
2017-07-29T05:06:35.407Z,50
2017-07-29T05:08:35.444Z,45
2017-07-29T05:09:50.068Z,40
2017-07-29T05:11:35.546Z,35
2017-07-29T05:12:35.239Z,30
2017-07-29T05:13:35.566Z,30
2017-07-29T05:14:35.607Z,30
2017-07-29T05:15:50.209Z,30
2017-07-29T05:16:35.662Z,35
2017-07-29T05:17:50.250Z,35
2017-07-29T05:18:35.691Z,35
2017-07-29T05:19:35.702Z,40
2017-07-29T05:20:35.739Z,40
2017-07-29T05:23:35.494Z,50
2017-07-29T05:24:35.843Z,50
2017-07-29T05:25:35.863Z,50
2017-07-29T05:26:35.892Z,50
2017-07-29T05:27:35.890Z,50
2017-07-29T05:28:35.942Z,50
2017-07-29T05:29:35.636Z,45
2017-07-29T05:30:35.972Z,45
2017-07-29T05:31:35.984Z,40
2017-07-29T05:32:36.026Z,40
2017-07-29T05:33:36.055Z,40
2017-07-29T05:34:36.098Z,40
2017-07-29T05:35:50.690Z,40
2017-07-29T05:36:36.100Z,40
2017-07-29T05:37:36.170Z,40
2017-07-29T05:38:36.185Z,40
2017-07-29T05:39:36.219Z,45
2017-07-29T05:40:36.215Z,45
2017-07-29T05:41:36.270Z,45
2017-07-29T05:42:36.252Z,50
2017-07-29T05:43:35.995Z,50
2017-07-29T05:44:36.316Z,50
2017-07-29T05:45:36.046Z,55
2017-07-29T05:46:36.382Z,65
2017-07-29T05:47:50.987Z,75
2017-07-29T05:48:36.093Z,80
2017-07-29T05:49:36.471Z,90
2017-07-29T05:50:36.154Z,100
2017-07-29T05:51:36.171Z,110
2017-07-29T05:52:36.487Z,120
2017-07-29T05:53:36.531Z,120
2017-07-29T05:54:51.143Z,115
2017-07-29T05:55:51.191Z,105
2017-07-29T05:56:36.319Z,100
2017-07-29T05:57:36.316Z,95
2017-07-29T05:59:36.662Z,85
2017-07-29T06:00:36.695Z,75
2017-07-29T06:02:36.769Z,70
2017-07-29T06:03:36.485Z,65
2017-07-29T06:04:36.796Z,60
2017-07-29T06:05:36.221Z,60
2017-07-29T06:06:36.855Z,60
2017-07-29T06:09:36.949Z,85
2017-07-29T06:10:51.256Z,85
2017-07-29T06:11:36.961Z,85
2017-07-29T06:12:37.015Z,85
2017-07-29T06:13:37.035Z,85
2017-07-29T06:14:36.760Z,80
2017-07-29T06:15:37.076Z,75
2017-07-29T06:16:37.107Z,70
2017-07-29T06:17:37.144Z,70
2017-07-29T06:18:51.450Z,75
2017-07-29T06:19:51.799Z,75
2017-07-29T06:20:51.814Z,70
2017-07-29T06:21:51.811Z,70
2017-07-29T06:22:51.858Z,70
2017-07-29T06:23:36.951Z,75
2017-07-29T06:24:36.989Z,80
2017-07-29T06:25:36.704Z,80
2017-07-29T06:27:06.559Z,85
2017-07-29T06:27:51.987Z,95
2017-07-29T06:28:37.419Z,100
2017-07-29T06:30:37.420Z,90
2017-07-29T06:31:37.156Z,90
2017-07-29T06:32:37.205Z,95
2017-07-29T06:33:36.918Z,100
2017-07-29T06:34:37.559Z,100
2017-07-29T06:35:37.572Z,110
2017-07-29T06:36:37.602Z,120
2017-07-29T06:37:37.608Z,145
2017-07-29T06:38:37.660Z,175
2017-07-29T06:39:37.669Z,210
2017-07-29T06:40:37.099Z,275
2017-07-29T06:41:37.730Z,275
2017-07-29T06:42:52.351Z,245
2017-07-29T06:43:37.156Z,225
2017-07-29T06:44:52.401Z,190
2017-07-29T06:45:37.823Z,170
2017-07-29T06:46:37.841Z,155
2017-07-29T06:47:37.862Z,140
2017-07-29T06:48:37.919Z,135
2017-07-29T06:49:52.574Z,150
2017-07-29T06:50:37.968Z,170
2017-07-29T06:51:52.590Z,180
2017-07-29T06:53:52.640Z,135
2017-07-29T06:54:38.056Z,120
2017-07-29T06:55:38.085Z,105
2017-07-29T06:56:38.081Z,100
2017-07-29T06:58:37.862Z,95
2017-07-29T07:00:38.223Z,105
2017-07-29T07:01:38.221Z,125
2017-07-29T07:02:37.957Z,145
2017-07-29T07:03:38.274Z,165
2017-07-29T07:04:38.028Z,190
2017-07-29T07:05:38.342Z,200
2017-07-29T07:06:38.058Z,190
2017-07-29T07:07:52.675Z,150
2017-07-29T07:08:38.095Z,135
2017-07-29T07:09:38.449Z,115
2017-07-29T07:10:38.472Z,95
2017-07-29T07:11:37.868Z,80
2017-07-29T07:12:38.530Z,70
2017-07-29T07:13:52.838Z,60
2017-07-29T07:14:38.572Z,60
2017-07-29T07:15:38.617Z,55
2017-07-29T07:16:53.218Z,55
2017-07-29T07:17:53.252Z,60
2017-07-29T07:18:38.669Z,60
2017-07-29T07:19:38.709Z,65
2017-07-29T07:20:38.702Z,70
2017-07-29T07:21:38.453Z,75
2017-07-29T07:22:38.782Z,85
2017-07-29T07:23:53.397Z,90
2017-07-29T07:24:38.495Z,95
2017-07-29T07:25:38.520Z,95
2017-07-29T07:27:53.189Z,105
2017-07-29T07:28:53.532Z,105
2017-07-29T07:29:53.248Z,105
2017-07-29T07:30:38.673Z,100
2017-07-29T07:31:38.709Z,100
2017-07-29T07:32:38.708Z,100
2017-07-29T07:33:38.753Z,100
2017-07-29T07:34:39.089Z,90
2017-07-29T07:35:38.805Z,85
2017-07-29T07:36:38.803Z,80
2017-07-29T07:37:38.846Z,70
2017-07-29T07:38:38.860Z,65
2017-07-29T07:40:38.918Z,60
2017-07-29T07:41:53.530Z,55
2017-07-29T07:42:39.260Z,55
2017-07-29T07:43:39.318Z,55
2017-07-29T07:44:39.319Z,55
2017-07-29T07:46:08.559Z,60
2017-07-29T07:46:53.983Z,65
2017-07-29T07:47:39.401Z,60
2017-07-29T07:48:39.441Z,60
2017-07-29T07:49:39.452Z,60
2017-07-29T07:50:39.492Z,65
2017-07-29T07:51:39.205Z,75
2017-07-29T07:52:39.549Z,90
2017-07-29T07:54:38.969Z,100
2017-07-29T07:55:54.214Z,100
2017-07-29T07:58:39.374Z,95
2017-07-29T07:59:39.428Z,95
2017-07-29T08:00:39.418Z,95
2017-07-29T08:01:54.347Z,100
2017-07-29T08:02:39.165Z,110
2017-07-29T08:03:39.786Z,115
2017-07-29T08:04:39.541Z,125
2017-07-29T08:05:39.863Z,130
2017-07-29T08:06:39.880Z,140
2017-07-29T08:07:54.514Z,160
2017-07-29T08:08:39.647Z,185
2017-07-29T08:09:39.655Z,185
2017-07-29T08:10:40.010Z,200
2017-07-29T08:11:39.400Z,220
2017-07-29T08:12:54.633Z,225
2017-07-29T08:13:39.435Z,225
2017-07-29T08:14:39.799Z,225
2017-07-29T08:15:39.809Z,225
2017-07-29T08:16:40.163Z,225
2017-07-29T08:17:54.754Z,220
2017-07-29T08:18:40.197Z,220
2017-07-29T08:19:40.255Z,225
2017-07-29T08:20:54.525Z,235
2017-07-29T08:21:39.956Z,250
2017-07-29T08:22:40.311Z,270
2017-07-29T08:23:40.348Z,290
2017-07-29T08:24:40.337Z,315
2017-07-29T08:25:40.375Z,355
2017-07-29T08:26:54.991Z,355
2017-07-29T08:27:40.446Z,350
2017-07-29T08:28:55.057Z,345
2017-07-29T08:29:40.490Z,350
2017-07-29T08:30:40.520Z,345
2017-07-29T08:32:54.887Z,340
2017-07-29T08:33:40.586Z,325
2017-07-29T08:34:40.306Z,345
2017-07-29T08:35:40.591Z,365
2017-07-29T08:36:40.360Z,490
2017-07-29T08:37:55.305Z,375
2017-07-29T08:38:40.724Z,395
2017-07-29T08:39:40.143Z,485
2017-07-29T08:40:40.497Z,445
2017-07-29T08:41:40.506Z,495
2017-07-29T08:43:09.743Z,450
2017-07-29T08:43:40.850Z,470
2017-07-29T08:44:55.199Z,445
2017-07-29T08:45:54.911Z,465
2017-07-29T08:46:40.957Z,695
2017-07-29T08:47:40.678Z,635
2017-07-29T08:48:41.024Z,545
2017-07-29T08:49:41.040Z,660
2017-07-29T08:50:41.073Z,595
2017-07-29T08:51:41.106Z,585
2017-07-29T08:52:41.142Z,555
2017-07-29T08:53:40.860Z,530
2017-07-29T08:54:41.195Z,510
2017-07-29T08:55:55.805Z,485
2017-07-29T08:56:41.580Z,485
2017-07-29T08:57:40.985Z,485
2017-07-29T08:58:41.014Z,445
2017-07-29T08:59:41.356Z,405
2017-07-29T09:00:41.390Z,510
2017-07-29T09:01:41.099Z,525
2017-07-29T09:02:41.433Z,525
2017-07-29T09:03:41.480Z,530
2017-07-29T09:04:56.109Z,510
2017-07-29T09:05:41.222Z,495
2017-07-29T09:07:40.988Z,470
2017-07-29T09:08:41.324Z,455
2017-07-29T09:09:41.357Z,450
2017-07-29T09:10:41.684Z,445
2017-07-29T09:11:56.351Z,410
2017-07-29T09:12:41.469Z,415
2017-07-29T09:13:41.515Z,410
2017-07-29T09:14:41.518Z,410
2017-07-29T09:15:41.869Z,395
2017-07-29T09:16:41.879Z,385
2017-07-29T09:17:41.926Z,360
2017-07-29T09:18:41.967Z,355
2017-07-29T09:19:41.998Z,340
2017-07-29T09:21:10.921Z,320
2017-07-29T09:21:42.066Z,320
2017-07-29T09:22:41.807Z,285
2017-07-29T09:23:42.116Z,275
2017-07-29T09:24:41.548Z,240
2017-07-29T09:25:41.878Z,225
2017-07-29T09:26:41.928Z,220
2017-07-29T09:27:41.636Z,255
2017-07-29T09:28:42.279Z,275
2017-07-29T09:29:42.345Z,230
2017-07-29T09:31:41.758Z,255
2017-07-29T09:32:42.439Z,290
2017-07-29T09:33:42.484Z,270
2017-07-29T09:34:42.176Z,240
2017-07-29T09:35:42.201Z,265
2017-07-29T09:36:57.164Z,290
2017-07-29T09:37:42.332Z,245
2017-07-29T09:38:42.304Z,255
2017-07-29T09:39:42.646Z,345
2017-07-29T09:40:42.671Z,370
2017-07-29T09:41:57.012Z,280
2017-07-29T09:42:42.431Z,360
2017-07-29T09:43:57.390Z,320
2017-07-29T09:44:42.816Z,370
2017-07-29T09:45:57.457Z,270
2017-07-29T09:46:42.861Z,270
2017-07-29T09:47:42.906Z,320
2017-07-29T09:48:42.944Z,280
2017-07-29T09:49:42.663Z,285
2017-07-29T09:50:42.702Z,270
2017-07-29T09:51:43.020Z,300
2017-07-29T09:52:57.673Z,280
2017-07-29T09:53:57.680Z,270
2017-07-29T09:54:43.124Z,265
2017-07-29T09:55:42.856Z,270
2017-07-29T09:56:42.881Z,260
2017-07-29T09:57:43.228Z,260
2017-07-29T09:58:43.265Z,250
2017-07-29T09:59:42.974Z,240
2017-07-29T10:00:57.925Z,235
2017-07-29T10:01:43.336Z,320
2017-07-29T10:02:43.073Z,325
2017-07-29T10:03:43.406Z,405
2017-07-29T10:04:43.445Z,295
2017-07-29T10:06:43.508Z,285
2017-07-29T10:07:58.155Z,285
2017-07-29T10:08:43.250Z,275
2017-07-29T10:09:43.312Z,335
2017-07-29T10:10:43.608Z,410
2017-07-29T10:11:58.262Z,360
2017-07-29T10:12:43.694Z,355
2017-07-29T10:13:43.720Z,325
2017-07-29T10:14:43.763Z,395
2017-07-29T10:15:58.378Z,310
2017-07-29T10:16:43.822Z,265
2017-07-29T10:17:43.842Z,255
2017-07-29T10:18:58.490Z,235
2017-07-29T10:19:58.516Z,265
2017-07-29T10:20:58.536Z,300
2017-07-29T10:21:43.983Z,200
2017-07-29T10:22:43.698Z,230
2017-07-29T10:23:44.029Z,240
2017-07-29T10:24:58.367Z,280
2017-07-29T10:25:43.795Z,330
2017-07-29T10:26:44.141Z,315
2017-07-29T10:27:43.854Z,240
2017-07-29T10:28:58.493Z,305
2017-07-29T10:29:43.902Z,315
2017-07-29T10:30:44.254Z,245
2017-07-29T10:31:43.985Z,325
2017-07-29T10:32:44.301Z,240
2017-07-29T10:33:44.371Z,240
2017-07-29T10:34:44.066Z,210
2017-07-29T10:35:44.426Z,250
2017-07-29T10:36:58.415Z,355
2017-07-29T10:37:44.173Z,365
2017-07-29T10:38:59.112Z,230
2017-07-29T10:39:59.129Z,250
2017-07-29T10:40:59.180Z,290
2017-07-29T10:41:44.292Z,355
2017-07-29T10:42:44.329Z,330
2017-07-29T10:43:44.653Z,200
2017-07-29T10:44:58.996Z,190
2017-07-29T10:45:59.028Z,185
2017-07-29T10:46:44.133Z,180
2017-07-29T10:47:44.161Z,195
2017-07-29T10:48:59.425Z,200
2017-07-29T10:49:44.531Z,210
2017-07-29T10:50:59.189Z,255
2017-07-29T10:51:59.198Z,250
2017-07-29T10:52:59.221Z,310
2017-07-29T10:53:44.680Z,305
2017-07-29T10:54:44.664Z,185
2017-07-29T10:55:59.645Z,185
2017-07-29T10:56:44.775Z,170
2017-07-29T10:57:45.096Z,240
2017-07-29T10:58:44.811Z,315
2017-07-29T10:59:45.141Z,315
2017-07-29T11:00:45.189Z,320
2017-07-29T11:01:45.238Z,315
2017-07-29T11:02:44.959Z,315
2017-07-29T11:03:44.956Z,320
2017-07-29T11:04:45.014Z,230
2017-07-29T11:05:59.921Z,230
2017-07-29T11:06:45.061Z,230
2017-07-29T11:07:45.090Z,225
2017-07-29T11:08:45.137Z,210
2017-07-29T11:09:45.461Z,205
2017-07-29T11:10:45.490Z,190
2017-07-29T11:12:00.107Z,175
2017-07-29T11:12:45.238Z,165
2017-07-29T11:13:44.987Z,155
2017-07-29T11:14:45.325Z,155
2017-07-29T11:15:45.344Z,155
2017-07-29T11:16:45.371Z,175
2017-07-29T11:17:59.975Z,195
2017-07-29T11:18:45.754Z,200
2017-07-29T11:21:00.405Z,210
2017-07-29T11:21:45.839Z,210
2017-07-29T11:22:45.861Z,215
2017-07-29T11:23:45.888Z,205
2017-07-29T11:25:45.970Z,185
2017-07-29T11:26:45.666Z,180
2017-07-29T11:28:00.606Z,175
2017-07-29T11:30:00.671Z,160
2017-07-29T11:30:45.489Z,160
2017-07-29T11:31:46.131Z,160
2017-07-29T11:33:00.770Z,160
2017-07-29T11:33:46.207Z,165
2017-07-29T11:34:46.220Z,170
2017-07-29T11:35:46.258Z,175
2017-07-29T11:36:45.638Z,180
2017-07-29T11:38:00.925Z,175
2017-07-29T11:38:46.030Z,175
2017-07-29T11:39:46.376Z,170
2017-07-29T11:41:01.006Z,175
2017-07-29T11:41:46.424Z,180
2017-07-29T11:43:01.049Z,190
2017-07-29T11:43:46.499Z,195
2017-07-29T11:44:46.209Z,195
2017-07-29T11:46:00.850Z,205
2017-07-29T11:47:00.881Z,210
2017-07-29T11:47:46.285Z,210
2017-07-29T11:48:46.626Z,230
2017-07-29T11:49:46.368Z,230
2017-07-29T11:50:46.724Z,230
2017-07-29T11:51:46.405Z,255
2017-07-29T11:52:46.473Z,210
2017-07-29T11:53:46.778Z,200
2017-07-29T11:54:46.826Z,200
2017-07-29T11:55:46.850Z,195
2017-07-29T11:56:46.903Z,195
2017-07-29T11:57:46.895Z,200
2017-07-29T12:00:46.990Z,210
2017-07-29T12:01:47.047Z,220
2017-07-29T12:02:47.053Z,230
2017-07-29T12:04:46.804Z,230
2017-07-29T12:06:47.163Z,280
2017-07-29T12:07:47.203Z,275
2017-07-29T12:09:01.834Z,270
2017-07-29T12:09:47.262Z,265
2017-07-29T12:10:47.296Z,265
2017-07-29T12:12:47.034Z,185
2017-07-29T12:14:01.994Z,245
2017-07-29T12:15:02.022Z,260
2017-07-29T12:15:47.430Z,205
2017-07-29T12:16:47.470Z,195
2017-07-29T12:17:47.506Z,190
2017-07-29T12:18:47.541Z,220
2017-07-29T12:19:47.545Z,200
2017-07-29T12:21:02.215Z,210
2017-07-29T12:21:47.616Z,225
2017-07-29T12:22:47.649Z,205
2017-07-29T12:23:47.677Z,200
2017-07-29T12:24:47.730Z,205
2017-07-29T12:25:47.749Z,265
2017-07-29T12:26:47.460Z,205
2017-07-29T12:27:47.804Z,205
2017-07-29T12:28:47.845Z,205
2017-07-29T12:30:02.476Z,215
2017-07-29T12:31:02.507Z,200
2017-07-29T12:31:47.934Z,195
2017-07-29T12:33:02.562Z,190
2017-07-29T12:33:47.974Z,180
2017-07-29T12:34:47.998Z,250
2017-07-29T12:35:47.751Z,240
2017-07-29T12:37:02.689Z,220
2017-07-29T12:37:47.803Z,215
2017-07-29T12:38:47.843Z,200
2017-07-29T12:39:47.838Z,195
2017-07-29T12:40:48.222Z,195
2017-07-29T12:41:48.241Z,165
2017-07-29T12:43:02.868Z,200
2017-07-29T12:43:47.973Z,175
2017-07-29T12:44:48.309Z,180
2017-07-29T12:45:48.363Z,200
2017-07-29T12:47:02.962Z,150
2017-07-29T12:47:48.412Z,195
2017-07-29T12:48:48.157Z,195
2017-07-29T12:49:48.464Z,155
2017-07-29T12:50:48.484Z,155
2017-07-29T12:51:48.207Z,175
2017-07-29T12:52:48.582Z,125
2017-07-29T12:53:47.982Z,180
2017-07-29T12:54:48.628Z,200
2017-07-29T12:55:48.328Z,155
2017-07-29T12:58:03.286Z,145
2017-07-29T12:58:49.041Z,150
2017-07-29T12:59:48.746Z,185
2017-07-29T13:01:48.834Z,160
2017-07-29T13:03:03.437Z,150
2017-07-29T13:03:48.570Z,145
2017-07-29T13:04:48.610Z,170
2017-07-29T13:05:48.937Z,150
2017-07-29T13:06:48.348Z,145
2017-07-29T13:07:48.984Z,145
2017-07-29T13:08:49.031Z,150
2017-07-29T13:09:49.048Z,155
2017-07-29T13:10:49.111Z,160
2017-07-29T13:11:49.130Z,175
2017-07-29T13:12:49.140Z,175
2017-07-29T13:13:49.183Z,190
2017-07-29T13:14:49.205Z,190
2017-07-29T13:15:48.934Z,185
2017-07-29T13:16:49.275Z,175
2017-07-29T13:18:03.912Z,265
2017-07-29T13:18:49.309Z,255
2017-07-29T13:19:49.358Z,200
2017-07-29T13:20:49.361Z,200
2017-07-29T13:21:49.412Z,270
2017-07-29T13:22:49.438Z,260
2017-07-29T13:23:49.480Z,265
2017-07-29T13:24:49.510Z,215
2017-07-29T13:25:49.518Z,270
2017-07-29T13:26:49.535Z,270
2017-07-29T13:28:03.866Z,190
2017-07-29T13:29:04.232Z,245
2017-07-29T13:29:49.644Z,250
2017-07-29T13:31:18.876Z,245
2017-07-29T13:32:04.286Z,240
2017-07-29T13:32:49.734Z,235
2017-07-29T13:33:49.767Z,235
2017-07-29T13:34:49.819Z,240
2017-07-29T13:35:49.815Z,225
2017-07-29T13:36:49.877Z,185
2017-07-29T13:37:49.257Z,230
2017-07-29T13:38:49.912Z,225
2017-07-29T13:39:49.928Z,225
2017-07-29T13:40:49.986Z,145
2017-07-29T13:41:50.003Z,140
2017-07-29T13:42:50.044Z,165
2017-07-29T13:44:50.377Z,225
2017-07-29T13:46:04.416Z,220
2017-07-29T13:47:04.751Z,220
2017-07-29T13:47:50.205Z,220
2017-07-29T13:48:50.214Z,185
2017-07-29T13:50:04.839Z,210
2017-07-29T13:51:04.880Z,205
2017-07-29T13:52:04.268Z,210
2017-07-29T13:53:04.928Z,125
2017-07-29T13:53:50.358Z,120
2017-07-29T13:54:50.088Z,115
2017-07-29T13:55:50.437Z,140
2017-07-29T13:56:50.150Z,200
2017-07-29T13:57:50.189Z,170
2017-07-29T13:59:05.127Z,200
2017-07-29T13:59:50.566Z,195
2017-07-29T14:00:50.262Z,200
2017-07-29T14:01:50.302Z,200
2017-07-29T14:02:50.332Z,200
2017-07-29T14:03:50.037Z,210
2017-07-29T14:04:50.091Z,215
2017-07-29T14:06:05.333Z,215
2017-07-29T14:06:50.738Z,210
2017-07-29T14:08:50.816Z,200
2017-07-29T14:10:05.141Z,195
2017-07-29T14:10:50.872Z,190
2017-07-29T14:11:50.907Z,185
2017-07-29T14:13:05.517Z,185
2017-07-29T14:13:50.651Z,185
2017-07-29T14:14:50.996Z,185
2017-07-29T14:15:51.028Z,175
2017-07-29T14:16:51.076Z,185
2017-07-29T14:17:51.086Z,120
2017-07-29T14:18:51.082Z,130
2017-07-29T14:19:51.154Z,105
2017-07-29T14:20:51.162Z,105
2017-07-29T14:22:05.793Z,105
2017-07-29T14:22:50.914Z,115
2017-07-29T14:23:51.263Z,135
2017-07-29T14:24:51.296Z,195
2017-07-29T14:26:05.615Z,205
2017-07-29T14:28:05.361Z,170
2017-07-29T14:28:51.457Z,200
2017-07-29T14:29:51.422Z,195
2017-07-29T14:30:51.457Z,175
2017-07-29T14:32:06.089Z,195
2017-07-29T14:32:51.222Z,190
2017-07-29T14:34:51.593Z,185
2017-07-29T14:35:51.602Z,105
2017-07-29T14:37:06.229Z,185
2017-07-29T14:38:06.265Z,140
2017-07-29T14:38:51.696Z,175
2017-07-29T14:40:51.755Z,160
2017-07-29T14:41:51.802Z,170
2017-07-29T14:42:51.809Z,130
2017-07-29T14:44:51.869Z,105
2017-07-29T14:46:51.634Z,105
2017-07-29T14:47:51.964Z,110
2017-07-29T14:48:52.009Z,110
2017-07-29T14:49:51.997Z,105
2017-07-29T14:50:52.052Z,105
2017-07-29T14:51:52.085Z,110
2017-07-29T14:53:06.403Z,125
2017-07-29T14:54:06.725Z,180
2017-07-29T14:54:51.859Z,190
2017-07-29T14:56:06.485Z,190
2017-07-29T14:57:51.949Z,145
2017-07-29T14:58:51.978Z,190
2017-07-29T15:00:52.026Z,125
2017-07-29T15:01:52.070Z,125
2017-07-29T15:02:52.396Z,125
2017-07-29T15:03:52.435Z,125
2017-07-29T15:04:52.450Z,125
2017-07-29T15:05:52.499Z,140